createdAt,value
2023-03-13T00:01:43.229Z,98003.34
2023-03-13T00:04:09.907Z,98000.81
2023-03-13T00:06:38.492Z,97993.06
2023-03-13T00:09:07.807Z,97991.16
2023-03-13T00:11:34.765Z,97985.81
2023-03-13T00:14:04.752Z,97983.09
2023-03-13T00:16:32.265Z,97980.88
2023-03-13T00:18:59.163Z,97984.97
2023-03-13T00:21:28.271Z,97976.25
2023-03-13T00:23:55.201Z,97964.66
2023-03-13T00:26:26.302Z,97961.16
2023-03-13T00:28:53.514Z,97958.75
2023-03-13T00:31:21.498Z,97956.13
2023-03-13T00:33:50.539Z,97955.19
2023-03-13T00:36:29.152Z,97952.66
2023-03-13T00:38:56.697Z,97949.22
2023-03-13T00:41:34.292Z,97943.22
2023-03-13T00:44:01.063Z,97943.44
2023-03-13T00:46:29.583Z,97937.53
2023-03-13T00:48:57.238Z,97931.56
2023-03-13T00:51:26.730Z,97931.88
2023-03-13T00:53:53.973Z,97927.66
2023-03-13T00:56:21.845Z,97932.81
2023-03-13T00:58:49.769Z,97929.66
2023-03-13T01:01:36.779Z,97923.97
2023-03-13T01:04:09.551Z,97924.59
2023-03-13T01:06:38.911Z,97918.41
2023-03-13T01:09:06.872Z,97910.88
2023-03-13T01:11:37.062Z,97909.81
2023-03-13T01:14:07.657Z,97905.50
2023-03-13T01:16:36.353Z,97892.91
2023-03-13T01:19:07.063Z,97902.28
2023-03-13T01:21:34.158Z,97898.78
2023-03-13T01:24:01.130Z,97894.06
2023-03-13T01:26:28.309Z,97888.94
2023-03-13T01:28:56.144Z,97893.13
2023-03-13T01:31:23.946Z,97887.16
2023-03-13T01:33:54.560Z,97878.25
2023-03-13T01:36:21.819Z,97873.00
2023-03-13T01:38:50.256Z,97861.06
2023-03-13T01:41:17.760Z,97858.72
2023-03-13T01:43:44.966Z,97861.44
2023-03-13T01:46:18.666Z,97854.50
2023-03-13T01:49:03.608Z,97850.72
2023-03-13T01:51:35.096Z,97846.22
2023-03-13T01:54:08.708Z,97828.94
2023-03-13T01:56:45.081Z,97837.25
2023-03-13T01:59:15.419Z,97812.06
2023-03-13T02:01:44.307Z,97816.56
2023-03-13T02:04:11.504Z,97811.22
2023-03-13T02:06:41.474Z,97814.69
2023-03-13T02:09:15.401Z,97818.13
2023-03-13T02:11:54.869Z,97811.13
2023-03-13T02:14:25.599Z,97811.75
2023-03-13T02:16:53.745Z,97799.59
2023-03-13T02:19:42.999Z,97800.03
2023-03-13T02:22:31.755Z,97798.97
2023-03-13T02:25:16.655Z,97785.13
2023-03-13T02:27:45.348Z,97791.94
2023-03-13T02:30:14.806Z,97805.56
2023-03-13T02:32:42.627Z,97796.97
2023-03-13T02:35:13.403Z,97787.22
2023-03-13T02:37:43.513Z,97783.56
2023-03-13T02:40:14.028Z,97785.84
2023-03-13T02:42:43.685Z,97778.19
2023-03-13T02:45:13.542Z,97777.97
2023-03-13T02:47:40.154Z,97782.19
2023-03-13T02:50:07.746Z,97777.56
2023-03-13T02:52:42.002Z,97767.91
2023-03-13T02:55:18.175Z,97766.78
2023-03-13T02:57:45.191Z,97755.66
2023-03-13T03:00:13.091Z,97759.00
2023-03-13T03:02:39.808Z,97760.38
2023-03-13T03:05:06.798Z,97758.69
2023-03-13T03:07:33.443Z,97760.13
2023-03-13T03:10:00.035Z,97751.41
2023-03-13T03:12:26.567Z,97758.25
2023-03-13T03:14:53.269Z,97730.84
2023-03-13T03:17:19.934Z,97747.31
2023-03-13T03:19:46.481Z,97741.88
2023-03-13T03:22:13.114Z,97743.44
2023-03-13T03:24:39.738Z,97738.00
2023-03-13T03:27:06.316Z,97736.91
2023-03-13T03:29:32.931Z,97740.78
2023-03-13T03:31:59.650Z,97741.50
2023-03-13T03:34:26.362Z,97733.66
2023-03-13T03:36:53.052Z,97731.84
2023-03-13T03:39:19.700Z,97733.28
2023-03-13T03:41:46.249Z,97721.03
2023-03-13T03:44:12.837Z,97720.56
2023-03-13T03:46:39.432Z,97705.53
2023-03-13T03:49:06.142Z,97705.38
2023-03-13T03:51:33.177Z,97706.09
2023-03-13T03:54:00.135Z,97707.31
2023-03-13T03:56:26.727Z,97717.59
2023-03-13T03:58:53.296Z,97720.97
2023-03-13T04:01:19.854Z,97712.97
2023-03-13T04:03:46.454Z,97711.06
2023-03-13T04:06:13.065Z,97710.72
2023-03-13T04:08:39.648Z,97708.97
2023-03-13T04:11:06.192Z,97711.84
2023-03-13T04:13:32.846Z,97717.19
2023-03-13T04:15:59.464Z,97718.31
2023-03-13T04:18:25.982Z,97712.00
2023-03-13T04:21:04.223Z,97713.81
2023-03-13T04:23:30.842Z,97712.38
2023-03-13T04:25:57.425Z,97709.50
2023-03-13T04:28:24.043Z,97724.47
2023-03-13T04:30:50.631Z,97718.16
2023-03-13T04:33:17.279Z,97719.38
2023-03-13T04:35:44.511Z,97719.50
2023-03-13T04:38:11.147Z,97713.38
2023-03-13T04:40:37.704Z,97696.81
2023-03-13T04:43:04.350Z,97701.22
2023-03-13T04:45:30.899Z,97700.38
2023-03-13T04:47:57.459Z,97696.91
2023-03-13T04:50:23.996Z,97696.91
2023-03-13T04:52:50.571Z,97689.50
2023-03-13T04:55:17.508Z,97690.25
2023-03-13T04:57:44.044Z,97683.19
2023-03-13T05:00:11.589Z,97685.00
2023-03-13T05:02:38.129Z,97693.84
2023-03-13T05:05:05.101Z,97696.09
2023-03-13T05:07:31.809Z,97692.41
2023-03-13T05:09:58.405Z,97691.44
2023-03-13T05:12:25.007Z,97693.13
2023-03-13T05:14:52.633Z,97700.91
2023-03-13T05:17:19.353Z,97689.81
2023-03-13T05:19:45.948Z,97697.91
2023-03-13T05:22:12.503Z,97696.00
2023-03-13T05:24:41.516Z,97691.22
2023-03-13T05:27:08.578Z,97685.97
2023-03-13T05:29:35.095Z,97686.78
2023-03-13T05:32:01.643Z,97677.13
2023-03-13T05:34:28.230Z,97688.38
2023-03-13T05:36:54.804Z,97690.28
2023-03-13T05:39:21.368Z,97678.69
2023-03-13T05:41:47.994Z,97680.94
2023-03-13T05:44:14.639Z,97684.28
2023-03-13T05:46:41.288Z,97683.38
2023-03-13T05:49:08.213Z,97678.94
2023-03-13T05:51:34.766Z,97677.00
2023-03-13T05:54:01.304Z,97677.47
2023-03-13T05:56:28.465Z,97680.00
2023-03-13T05:58:54.967Z,97679.75
2023-03-13T06:01:21.710Z,97661.00
2023-03-13T06:03:48.407Z,97665.41
2023-03-13T06:06:15.033Z,97660.16
2023-03-13T06:08:41.563Z,97655.75
2023-03-13T06:11:08.239Z,97657.50
2023-03-13T06:13:34.827Z,97648.44
2023-03-13T06:16:01.503Z,97653.97
2023-03-13T06:18:28.498Z,97648.69
2023-03-13T06:21:00.761Z,97654.31
2023-03-13T06:23:27.885Z,97657.41
2023-03-13T06:25:54.936Z,97656.19
2023-03-13T06:28:21.975Z,97655.97
2023-03-13T06:30:48.564Z,97644.38
2023-03-13T06:33:15.362Z,97641.88
2023-03-13T06:35:55.889Z,97647.00
2023-03-13T06:38:26.858Z,97656.44
2023-03-13T06:40:53.550Z,97647.47
2023-03-13T06:43:20.732Z,97642.09
2023-03-13T06:45:47.478Z,97640.16
2023-03-13T06:48:14.131Z,97653.22
2023-03-13T06:50:41.647Z,97656.56
2023-03-13T06:53:13.521Z,97656.66
2023-03-13T06:55:40.050Z,97659.78
2023-03-13T06:58:06.629Z,97653.94
2023-03-13T07:00:34.532Z,97651.75
2023-03-13T07:03:01.670Z,97652.34
2023-03-13T07:05:28.209Z,97653.69
2023-03-13T07:07:54.825Z,97651.75
2023-03-13T07:10:21.420Z,97644.97
2023-03-13T07:12:47.990Z,97640.28
2023-03-13T07:15:14.616Z,97635.84
2023-03-13T07:17:41.244Z,97634.19
2023-03-13T07:20:10.723Z,97643.59
2023-03-13T07:22:38.215Z,97640.03
2023-03-13T07:25:06.248Z,97646.38
2023-03-13T07:27:33.035Z,97647.09
2023-03-13T07:29:59.644Z,97653.91
2023-03-13T07:32:26.249Z,97666.22
2023-03-13T07:34:53.088Z,97654.63
2023-03-13T07:37:19.698Z,97659.88
2023-03-13T07:39:46.302Z,97650.53
2023-03-13T07:42:13.143Z,97642.72
2023-03-13T07:44:39.769Z,97648.22
2023-03-13T07:47:06.966Z,97646.06
2023-03-13T07:49:33.808Z,97634.56
2023-03-13T07:52:00.410Z,97629.66
2023-03-13T07:54:26.990Z,97628.69
2023-03-13T07:56:53.538Z,97636.22
2023-03-13T07:59:20.157Z,97627.34
2023-03-13T08:01:46.822Z,97620.53
2023-03-13T08:04:14.480Z,97636.47
2023-03-13T08:06:42.106Z,97638.84
2023-03-13T08:09:09.860Z,97632.72
2023-03-13T08:11:41.174Z,97634.41
2023-03-13T08:14:07.844Z,97634.53
2023-03-13T08:16:35.451Z,97640.88
2023-03-13T08:19:05.140Z,97630.34
2023-03-13T08:21:36.643Z,97629.50
2023-03-13T08:24:09.070Z,97628.69
2023-03-13T08:26:37.905Z,97640.28
2023-03-13T08:29:15.267Z,97634.41
2023-03-13T08:31:49.987Z,97633.84
2023-03-13T08:34:17.821Z,97630.09
2023-03-13T08:36:45.029Z,97628.09
2023-03-13T08:39:13.985Z,97621.03
2023-03-13T08:41:41.380Z,97624.50
2023-03-13T08:44:11.101Z,97630.00
2023-03-13T08:46:38.318Z,97622.97
2023-03-13T08:49:06.646Z,97616.16
2023-03-13T08:51:34.093Z,97615.06
2023-03-13T08:54:01.599Z,97611.47
2023-03-13T08:56:30.506Z,97611.06
2023-03-13T08:59:02.041Z,97598.00
2023-03-13T09:01:31.262Z,97600.72
2023-03-13T09:03:59.161Z,97594.22
2023-03-13T09:06:26.596Z,97595.56
2023-03-13T09:08:53.273Z,97596.53
2023-03-13T09:11:21.294Z,97594.31
2023-03-13T09:13:50.212Z,97580.91
2023-03-13T09:16:22.100Z,97589.75
2023-03-13T09:18:49.563Z,97584.81
2023-03-13T09:21:24.482Z,97584.81
2023-03-13T09:23:51.811Z,97582.44
2023-03-13T09:26:22.648Z,97577.19
2023-03-13T09:28:50.098Z,97567.06
2023-03-13T09:31:19.445Z,97569.00
2023-03-13T09:33:47.969Z,97568.75
2023-03-13T09:36:15.022Z,97576.91
2023-03-13T09:38:41.606Z,97572.13
2023-03-13T09:41:17.449Z,97556.34
2023-03-13T09:43:49.955Z,97552.44
2023-03-13T09:46:37.117Z,97557.19
2023-03-13T09:49:42.504Z,97546.81
2023-03-13T09:52:17.265Z,97563.47
2023-03-13T09:55:04.308Z,97536.78
2023-03-13T09:58:01.714Z,97530.28
2023-03-13T10:00:44.814Z,97524.78
2023-03-13T10:03:11.403Z,97523.13
2023-03-13T10:05:43.380Z,97515.34
2023-03-13T10:08:12.918Z,97507.75
2023-03-13T10:11:01.220Z,97511.38
2023-03-13T10:13:48.635Z,97511.66
2023-03-13T10:16:22.217Z,97504.88
2023-03-13T10:18:55.664Z,97501.56
2023-03-13T10:21:28.253Z,97495.81
2023-03-13T10:24:07.576Z,97487.09
2023-03-13T10:26:36.473Z,97496.09
2023-03-13T10:29:25.052Z,97485.41
2023-03-13T10:32:03.330Z,97469.13
2023-03-13T10:34:57.169Z,97460.72
2023-03-13T10:37:45.582Z,97461.41
2023-03-13T10:40:23.222Z,97456.81
2023-03-13T10:42:52.382Z,97444.16
2023-03-13T10:45:24.698Z,97442.78
2023-03-13T10:48:01.884Z,97438.75
2023-03-13T10:50:34.334Z,97437.47
2023-03-13T10:53:25.560Z,97441.47
2023-03-13T10:56:00.586Z,97437.28
2023-03-13T10:58:45.151Z,97425.75
2023-03-13T11:01:27.632Z,97427.28
2023-03-13T11:03:56.748Z,97414.91
2023-03-13T11:06:33.529Z,97406.84
2023-03-13T11:09:12.274Z,97402.97
2023-03-13T11:11:44.828Z,97409.63
2023-03-13T11:14:17.776Z,97396.38
2023-03-13T11:16:52.036Z,97403.88
2023-03-13T11:19:46.551Z,97388.78
2023-03-13T11:22:33.331Z,97372.69
2023-03-13T11:25:20.915Z,97379.97
2023-03-13T11:27:53.102Z,97387.50
2023-03-13T11:30:25.687Z,97363.34
2023-03-13T11:33:00.668Z,97372.78
2023-03-13T11:35:50.359Z,97369.84
2023-03-13T11:38:25.778Z,97368.56
2023-03-13T11:41:12.541Z,97350.78
2023-03-13T11:44:11.336Z,97345.81
2023-03-13T11:47:16.332Z,97342.78
2023-03-13T11:50:02.515Z,97339.09
2023-03-13T11:52:37.956Z,97339.72
2023-03-13T11:55:29.511Z,97337.44
2023-03-13T11:58:17.054Z,97339.38
2023-03-13T12:01:05.419Z,97334.50
2023-03-13T12:04:04.853Z,97307.25
2023-03-13T12:06:41.967Z,97316.09
2023-03-13T12:09:15.486Z,97303.56
2023-03-13T12:11:59.530Z,97302.06
2023-03-13T12:14:34.642Z,97299.16
2023-03-13T12:17:06.151Z,97288.75
2023-03-13T12:19:47.668Z,97276.97
2023-03-13T12:22:30.184Z,97272.66
2023-03-13T12:25:21.334Z,97264.84
2023-03-13T12:27:51.941Z,97261.88
2023-03-13T12:30:31.370Z,97251.75
2023-03-13T12:33:24.624Z,97241.81
2023-03-13T12:36:11.009Z,97241.00
2023-03-13T12:38:55.561Z,97230.09
2023-03-13T12:41:49.984Z,97220.34
2023-03-13T12:44:19.540Z,97226.13
2023-03-13T12:46:47.577Z,97199.19
2023-03-13T12:49:39.819Z,97209.28
2023-03-13T12:52:30.932Z,97192.53
2023-03-13T12:55:00.453Z,97186.63
2023-03-13T12:57:45.851Z,97190.44
2023-03-13T13:00:21.025Z,97186.31
2023-03-13T13:02:48.278Z,97168.31
2023-03-13T13:05:20.774Z,97154.56
2023-03-13T13:07:56.463Z,97148.41
2023-03-13T13:10:27.791Z,97138.47
2023-03-13T13:13:31.428Z,97136.09
2023-03-13T13:16:12.058Z,97135.09
2023-03-13T13:18:38.610Z,97127.78
2023-03-13T13:21:05.119Z,97121.88
2023-03-13T13:23:38.944Z,97104.78
2023-03-13T13:26:29.582Z,97098.47
2023-03-13T13:29:01.334Z,97092.00
2023-03-13T13:31:56.868Z,97085.34
2023-03-13T13:34:34.423Z,97078.47
2023-03-13T13:37:02.553Z,97076.06
2023-03-13T13:39:52.785Z,97072.25
2023-03-13T13:42:31.728Z,97052.94
2023-03-13T13:45:01.430Z,97049.41
2023-03-13T13:47:33.385Z,97047.31
2023-03-13T13:50:00.925Z,97026.28
2023-03-13T13:52:33.847Z,97018.94
2023-03-13T13:55:00.570Z,97020.47
2023-03-13T13:57:31.790Z,97005.22
2023-03-13T14:00:25.239Z,97005.59
2023-03-13T14:02:54.233Z,97001.91
2023-03-13T14:05:30.618Z,96978.94
2023-03-13T14:08:18.965Z,96978.94
2023-03-13T14:10:54.211Z,96951.00
2023-03-13T14:13:22.368Z,96941.47
2023-03-13T14:15:53.183Z,96951.25
2023-03-13T14:18:22.910Z,96962.50
2023-03-13T14:21:04.335Z,97050.56
2023-03-13T14:23:42.188Z,97068.03
2023-03-13T14:26:20.297Z,97128.22
2023-03-13T14:28:51.897Z,97127.97
2023-03-13T14:31:28.870Z,97119.31
2023-03-13T14:34:01.156Z,97112.47
2023-03-13T14:36:28.707Z,97111.53
2023-03-13T14:39:00.091Z,97067.41
2023-03-13T14:41:39.638Z,97068.06
2023-03-13T14:44:12.508Z,97049.97
2023-03-13T14:46:41.924Z,97059.38
2023-03-13T14:49:17.636Z,97058.50
2023-03-13T14:51:44.358Z,97045.16
2023-03-13T14:54:29.375Z,97051.16
2023-03-13T14:57:16.277Z,97047.53
2023-03-13T14:59:43.804Z,97033.63
2023-03-13T15:02:29.594Z,97021.63
2023-03-13T15:05:00.061Z,97021.16
2023-03-13T15:07:37.556Z,97002.94
2023-03-13T15:10:18.586Z,96994.34
2023-03-13T15:12:45.514Z,96996.19
2023-03-13T15:15:12.381Z,96999.41
2023-03-13T15:17:39.019Z,96990.19
2023-03-13T15:20:09.848Z,96984.00
2023-03-13T15:22:37.905Z,96981.38
2023-03-13T15:25:14.575Z,96963.56
2023-03-13T15:27:41.202Z,96963.56
2023-03-13T15:30:08.418Z,96961.91
2023-03-13T15:32:38.826Z,96968.44
2023-03-13T15:35:27.627Z,96952.13
2023-03-13T15:37:55.238Z,96960.19
2023-03-13T15:40:24.243Z,96953.25
2023-03-13T15:42:52.190Z,96943.59
2023-03-13T15:45:19.128Z,96946.16
2023-03-13T15:47:46.296Z,96941.78
2023-03-13T15:50:14.972Z,96924.66
2023-03-13T15:52:41.723Z,96905.19
2023-03-13T15:55:10.163Z,96903.91
2023-03-13T15:57:42.288Z,96907.13
2023-03-13T16:00:19.989Z,96911.03
2023-03-13T16:02:46.823Z,96902.84
2023-03-13T16:05:13.666Z,96909.03
2023-03-13T16:07:40.281Z,96902.41
2023-03-13T16:10:14.863Z,96907.84
2023-03-13T16:12:41.450Z,96906.03
2023-03-13T16:15:08.609Z,96914.47
2023-03-13T16:17:35.193Z,96913.28
2023-03-13T16:20:01.835Z,96914.56
2023-03-13T16:22:28.427Z,96914.56
2023-03-13T16:24:55.026Z,96901.53
2023-03-13T16:27:21.695Z,96901.91
2023-03-13T16:29:48.230Z,96897.88
2023-03-13T16:32:16.962Z,96903.69
2023-03-13T16:34:43.569Z,96883.44
2023-03-13T16:37:15.660Z,96871.03
2023-03-13T16:39:43.653Z,96855.91
2023-03-13T16:42:11.406Z,96858.84
2023-03-13T16:44:38.237Z,96844.53
2023-03-13T16:47:22.345Z,96846.78
2023-03-13T16:49:49.078Z,96847.25
2023-03-13T16:52:17.506Z,96844.91
2023-03-13T16:54:45.113Z,96826.06
2023-03-13T16:57:18.337Z,96832.34
2023-03-13T16:59:45.054Z,96839.25
2023-03-13T17:02:16.617Z,96848.34
2023-03-13T17:04:44.888Z,96886.53
2023-03-13T17:07:23.904Z,96888.81
2023-03-13T17:09:51.597Z,96895.28
2023-03-13T17:12:19.117Z,96884.13
2023-03-13T17:14:45.949Z,96887.69
2023-03-13T17:17:19.788Z,96881.78
2023-03-13T17:19:46.836Z,96879.81
2023-03-13T17:22:15.527Z,96866.56
2023-03-13T17:24:43.704Z,96872.81
2023-03-13T17:27:14.817Z,96868.66
2023-03-13T17:29:42.435Z,96870.09
2023-03-13T17:32:14.344Z,96863.47
2023-03-13T17:34:41.892Z,96882.94
2023-03-13T17:37:15.262Z,96912.66
2023-03-13T17:39:43.454Z,96926.66
2023-03-13T17:42:10.332Z,96934.03
2023-03-13T17:44:39.162Z,96928.75
2023-03-13T17:47:18.046Z,96942.75
2023-03-13T17:49:45.292Z,96948.72
2023-03-13T17:52:16.818Z,96950.28
2023-03-13T17:54:44.989Z,96947.56
2023-03-13T17:57:19.885Z,96941.50
2023-03-13T17:59:49.301Z,96931.09
2023-03-13T18:02:17.496Z,96948.28
2023-03-13T18:04:45.082Z,96920.22
2023-03-13T18:07:21.229Z,96927.97
2023-03-13T18:09:47.947Z,96927.84
2023-03-13T18:12:15.184Z,96920.25
2023-03-13T18:14:42.028Z,96921.06
2023-03-13T18:17:20.857Z,96927.16
2023-03-13T18:19:48.939Z,96911.25
2023-03-13T18:22:18.141Z,96905.16
2023-03-13T18:24:45.319Z,96883.28
2023-03-13T18:27:14.432Z,96892.97
2023-03-13T18:29:41.566Z,96920.09
2023-03-13T18:32:08.575Z,96934.59
2023-03-13T18:34:35.230Z,96908.19
2023-03-13T18:37:04.999Z,96909.41
2023-03-13T18:39:33.169Z,96893.94
2023-03-13T18:42:00.189Z,96877.06
2023-03-13T18:44:26.814Z,96858.78
2023-03-13T18:46:53.458Z,96862.09
2023-03-13T18:49:22.351Z,96851.34
2023-03-13T18:51:50.618Z,96885.06
2023-03-13T18:54:17.350Z,96869.75
2023-03-13T18:56:44.987Z,96840.69
2023-03-13T18:59:13.979Z,96839.72
2023-03-13T19:01:40.741Z,96825.31
2023-03-13T19:04:07.347Z,96802.50
2023-03-13T19:06:35.868Z,96780.38
2023-03-13T19:09:31.730Z,96790.34
2023-03-13T19:11:55.342Z,96826.28
2023-03-13T19:14:22.073Z,96820.91
2023-03-13T19:16:52.816Z,96813.84
2023-03-13T19:19:21.708Z,96822.44
2023-03-13T19:21:49.542Z,96819.38
2023-03-13T19:24:16.392Z,96821.31
2023-03-13T19:26:46.776Z,96801.41
2023-03-13T19:29:18.984Z,96795.03
2023-03-13T19:31:46.143Z,96785.38
2023-03-13T19:34:12.748Z,96811.78
2023-03-13T19:36:45.083Z,96797.53
2023-03-13T19:39:19.717Z,96807.38
2023-03-13T19:41:49.582Z,96810.13
2023-03-13T19:44:17.634Z,96791.72
2023-03-13T19:46:44.937Z,96764.06
2023-03-13T19:49:18.297Z,96770.84
2023-03-13T19:51:45.530Z,96796.28
2023-03-13T19:54:12.985Z,96799.91
2023-03-13T19:56:41.533Z,96792.28
2023-03-13T19:59:15.198Z,96792.41
2023-03-13T20:01:41.992Z,96807.88
2023-03-13T20:04:08.570Z,96801.81
2023-03-13T20:06:36.080Z,96806.94
2023-03-13T20:09:06.538Z,96788.41
2023-03-13T20:11:33.540Z,96775.69
2023-03-13T20:14:00.292Z,96775.81
2023-03-13T20:16:30.099Z,96777.34
2023-03-13T20:18:58.013Z,96774.97
2023-03-13T20:21:29.935Z,96769.84
2023-03-13T20:23:57.611Z,96754.09
2023-03-13T20:26:25.939Z,96751.34
2023-03-13T20:28:53.872Z,96763.72
2023-03-13T20:31:22.942Z,96753.88
2023-03-13T20:33:49.691Z,96748.09
2023-03-13T20:36:18.091Z,96749.31
2023-03-13T20:38:45.012Z,96754.44
2023-03-13T20:41:11.613Z,96729.84
2023-03-13T20:43:38.778Z,96722.25
2023-03-13T20:46:09.064Z,96719.50
2023-03-13T20:48:39.108Z,96716.44
2023-03-13T20:51:07.796Z,96716.59
2023-03-13T20:53:36.909Z,96732.31
2023-03-13T20:56:06.649Z,96739.75
2023-03-13T20:58:34.023Z,96757.41
2023-03-13T21:01:01.169Z,96769.25
2023-03-13T21:03:28.370Z,96761.41
2023-03-13T21:05:55.102Z,96755.91
2023-03-13T21:08:23.209Z,96771.88
2023-03-13T21:10:49.883Z,96774.50
2023-03-13T21:13:16.612Z,96776.56
2023-03-13T21:15:43.312Z,96771.16
2023-03-13T21:18:10.043Z,96790.06
2023-03-13T21:20:38.353Z,96786.31
2023-03-13T21:23:04.981Z,96784.50
2023-03-13T21:25:31.754Z,96783.09
2023-03-13T21:27:58.298Z,96782.84
2023-03-13T21:30:24.866Z,96791.94
2023-03-13T21:32:51.676Z,96789.31
2023-03-13T21:35:18.451Z,96804.47
2023-03-13T21:37:45.048Z,96801.97
2023-03-13T21:40:12.633Z,96808.63
2023-03-13T21:42:39.509Z,96812.75
2023-03-13T21:45:07.521Z,96797.19
2023-03-13T21:47:37.550Z,96789.44
2023-03-13T21:50:06.837Z,96784.06
2023-03-13T21:52:38.316Z,96790.00
2023-03-13T21:55:08.302Z,96774.97
2023-03-13T21:57:34.911Z,96791.53
2023-03-13T22:00:01.622Z,96801.47
2023-03-13T22:02:28.339Z,96808.34
2023-03-13T22:04:56.047Z,96833.03
2023-03-13T22:07:23.632Z,96835.53
2023-03-13T22:09:50.387Z,96829.59
2023-03-13T22:12:18.193Z,96822.13
2023-03-13T22:14:44.797Z,96812.91
2023-03-13T22:17:16.820Z,96798.94
2023-03-13T22:19:43.594Z,96794.78
2023-03-13T22:22:10.167Z,96794.09
2023-03-13T22:24:36.788Z,96775.88
2023-03-13T22:27:03.598Z,96765.41
2023-03-13T22:29:31.958Z,96773.13
2023-03-13T22:31:58.732Z,96769.69
2023-03-13T22:34:25.321Z,96774.94
2023-03-13T22:36:51.905Z,96804.84
2023-03-13T22:39:18.672Z,96807.19
2023-03-13T22:41:45.282Z,96775.75
2023-03-13T22:44:12.093Z,96784.97
2023-03-13T22:46:38.686Z,96789.97
2023-03-13T22:49:05.281Z,96768.03
2023-03-13T22:51:31.895Z,96771.34
2023-03-13T22:53:58.507Z,96763.59
2023-03-13T22:56:26.573Z,96752.03
2023-03-13T22:58:54.257Z,96745.25
2023-03-13T23:01:20.955Z,96747.59
2023-03-13T23:03:47.520Z,96740.69
2023-03-13T23:06:19.927Z,96756.44
2023-03-13T23:08:46.916Z,96771.34
2023-03-13T23:11:14.073Z,96768.72
2023-03-13T23:13:40.930Z,96778.25
2023-03-13T23:16:10.067Z,96789.81
2023-03-13T23:18:38.243Z,96774.78
2023-03-13T23:21:07.659Z,96786.50
2023-03-13T23:23:34.645Z,96789.81
2023-03-13T23:26:03.452Z,96791.34
2023-03-13T23:28:30.090Z,96802.81
2023-03-13T23:30:56.816Z,96812.59
2023-03-13T23:33:23.350Z,96813.03
2023-03-13T23:35:49.980Z,96805.84
2023-03-13T23:38:18.496Z,96820.78
2023-03-13T23:40:45.482Z,96806.69
2023-03-13T23:43:11.997Z,96806.69
2023-03-13T23:45:38.559Z,96804.06
2023-03-13T23:48:05.325Z,96809.31
2023-03-13T23:50:31.917Z,96811.94
2023-03-13T23:52:58.483Z,96814.94
2023-03-13T23:55:25.052Z,96806.00
2023-03-13T23:57:51.600Z,96798.00
